Pacific Endeavor — 3EWA9 — position and weather

sailwx.info

Track history (hours):
 
Tides and Currents Weather Stations Pressure Air Temp Water Temp Dewpoint Dewpoint Depression Visibility Wind Speed Wind Dir Waves Ship Positions

Pacific Endeavor

Last reported at 2018-Apr-22 14:00 UTC. Time now 2018-Apr-22 14:09 UTC.
Position N 51°21' E 004°16'.

Length 159 m; draft 10 m.

Type: Ship. MMSI: 355050000.

Date/timePositionNaut miles runAvg speedWind from/ knotsBaromVisibWave heightAir tempDewpointWater temp
2018-Apr-22 14:00N 51°21' E 004°16'4 8.4
2018-Apr-22 13:30N 51°24' E 004°11'510.3
2018-Apr-22 13:01N 51°23' E 004°03'4 8.6
2018-Apr-22 12:31N 51°26' E 003°59'510.5
2018-Apr-22 12:00N 51°21' E 003°54'5 9.7
2018-Apr-22 11:30N 51°22' E 003°46'5 9.7
2018-Apr-22 11:00N 51°26' E 003°41'4 8.4
2018-Apr-22 10:30N 51°26' E 003°35'4 8.9
2018-Apr-22 10:00N 51°25' E 003°28'510.2
2018-Apr-22 09:30N 51°24' E 003°19'510.8
2018-Apr-22 09:00N 51°24' E 003°11'510.7
2018-Apr-22 08:30N 51°24' E 003°02'510.2
2018-Apr-22 08:00N 51°22' E 002°55'611.4
2018-Apr-22 07:30N 51°22' E 002°46'4 8.3
2018-Apr-22 07:00N 51°22' E 002°39'2 3.1
2018-Apr-22 06:30N 51°22' E 002°37'3 5.9
2018-Apr-22 06:00N 51°22' E 002°32'3 5.5
2018-Apr-22 05:31N 51°22' E 002°28'4 7.6
2018-Apr-22 04:59N 51°20' E 002°22'613.2
2018-Apr-22 04:30N 51°16' E 002°14'714.6
2018-Apr-22 04:01N 51°13' E 002°04'815.3
2018-Apr-22 03:30N 51°10' E 001°53'815.3
2018-Apr-22 03:00N 51°05' E 001°43'815.6
2018-Apr-22 02:30N 50°60' E 001°34'815.1
2018-Apr-22 02:00N 50°53' E 001°28'714.5
2018-Apr-22 01:30N 50°46' E 001°24'713.8
2018-Apr-22 00:59N 50°40' E 001°18'2214.3
2018-Apr-21 23:28N 50°28' E 000°50'1914.1
2018-Apr-21 22:08N 50°22' E 000°22'213.6
2018-Apr-21 22:00N 50°21' E 000°19'713.3
2018-Apr-21 21:30N 50°19' E 000°09'612.9
2018-Apr-21 21:00N 50°18' W 000°00'612.5
2018-Apr-21 20:30N 50°16' W 000°10'612.0
2018-Apr-21 20:00N 50°14' W 000°19'611.8
2018-Apr-21 19:30N 50°13' W 000°28'611.5
2018-Apr-21 19:00N 50°11' W 000°37'611.3
2018-Apr-21 18:30N 50°10' W 000°45'611.2
2018-Apr-21 18:00N 50°09' W 000°54'611.1
2018-Apr-21 17:30N 50°07' W 001°02'510.7
2018-Apr-21 17:00N 50°06' W 001°10'511.0
2018-Apr-21 16:30N 50°05' W 001°18'611.2
2018-Apr-21 16:00N 50°03' W 001°27'611.9
2018-Apr-21 15:30N 50°02' W 001°36'612.7
2018-Apr-21 15:00N 49°60' W 001°45'713.3
2018-Apr-21 14:30N 49°58' W 001°55'714.0
2018-Apr-21 14:00N 49°57' W 002°06'714.7
2018-Apr-21 13:30N 49°55' W 002°17'714.9
2018-Apr-21 13:00N 49°53' W 002°28'714.9
2018-Apr-21 12:30N 49°51' W 002°39'714.8
2018-Apr-21 12:00N 49°49' W 002°50'714.8
2018-Apr-21 11:30N 49°47' W 003°01'714.8
2018-Apr-21 11:00N 49°43' W 003°11'714.7
2018-Apr-21 10:30N 49°39' W 003°21'10714.2
2018-Apr-21 02:57N 48°42' W 005°39'613.0
2018-Apr-21 02:29N 48°36' W 005°44'912.4
2018-Apr-21 01:45N 48°29' W 005°52'312.2
2018-Apr-21 01:31N 48°27' W 005°56'  
2018-Apr-17 13:41N 37°50' W 027°03'213.1
2018-Apr-17 13:30N 37°49' W 027°05'713.3
2018-Apr-17 12:59N 37°45' W 027°12'2513.1
2018-Apr-17 11:06N 37°30' W 027°37'213.4
2018-Apr-17 10:56N 37°28' W 027°39'712.9
2018-Apr-17 10:25N 37°24' W 027°46'613.6
2018-Apr-17 10:00N 37°21' W 027°51'  
Track history (hours):
 
Tides and Currents Weather Stations Pressure Air Temp Water Temp Dewpoint Dewpoint Depression Visibility Wind Speed Wind Dir Waves Ship Positions

Pacific Endeavor

Last reported at 2018-Apr-22 14:00 UTC. Time now 2018-Apr-22 14:09 UTC.
Position N 51°21' E 004°16'.

Length 159 m; draft 10 m.

Type: Ship. MMSI: 355050000.

Date/timePositionNaut miles runAvg speedWind from/ knotsBaromVisibWave heightAir tempDewpointWater temp
2018-Apr-22 14:00N 51°21' E 004°16'4 8.4
2018-Apr-22 13:30N 51°24' E 004°11'510.3
2018-Apr-22 13:01N 51°23' E 004°03'4 8.6
2018-Apr-22 12:31N 51°26' E 003°59'510.5
2018-Apr-22 12:00N 51°21' E 003°54'5 9.7
2018-Apr-22 11:30N 51°22' E 003°46'5 9.7
2018-Apr-22 11:00N 51°26' E 003°41'4 8.4
2018-Apr-22 10:30N 51°26' E 003°35'4 8.9
2018-Apr-22 10:00N 51°25' E 003°28'510.2
2018-Apr-22 09:30N 51°24' E 003°19'510.8
2018-Apr-22 09:00N 51°24' E 003°11'510.7
2018-Apr-22 08:30N 51°24' E 003°02'510.2
2018-Apr-22 08:00N 51°22' E 002°55'611.4
2018-Apr-22 07:30N 51°22' E 002°46'4 8.3
2018-Apr-22 07:00N 51°22' E 002°39'2 3.1
2018-Apr-22 06:30N 51°22' E 002°37'3 5.9
2018-Apr-22 06:00N 51°22' E 002°32'3 5.5
2018-Apr-22 05:31N 51°22' E 002°28'4 7.6
2018-Apr-22 04:59N 51°20' E 002°22'613.2
2018-Apr-22 04:30N 51°16' E 002°14'714.6
2018-Apr-22 04:01N 51°13' E 002°04'815.3
2018-Apr-22 03:30N 51°10' E 001°53'815.3
2018-Apr-22 03:00N 51°05' E 001°43'815.6
2018-Apr-22 02:30N 50°60' E 001°34'815.1
2018-Apr-22 02:00N 50°53' E 001°28'714.5
2018-Apr-22 01:30N 50°46' E 001°24'713.8
2018-Apr-22 00:59N 50°40' E 001°18'2214.3
2018-Apr-21 23:28N 50°28' E 000°50'1914.1
2018-Apr-21 22:08N 50°22' E 000°22'213.6
2018-Apr-21 22:00N 50°21' E 000°19'713.3
2018-Apr-21 21:30N 50°19' E 000°09'612.9
2018-Apr-21 21:00N 50°18' W 000°00'612.5
2018-Apr-21 20:30N 50°16' W 000°10'612.0
2018-Apr-21 20:00N 50°14' W 000°19'611.8
2018-Apr-21 19:30N 50°13' W 000°28'611.5
2018-Apr-21 19:00N 50°11' W 000°37'611.3
2018-Apr-21 18:30N 50°10' W 000°45'611.2
2018-Apr-21 18:00N 50°09' W 000°54'611.1
2018-Apr-21 17:30N 50°07' W 001°02'510.7
2018-Apr-21 17:00N 50°06' W 001°10'511.0
2018-Apr-21 16:30N 50°05' W 001°18'611.2
2018-Apr-21 16:00N 50°03' W 001°27'611.9
2018-Apr-21 15:30N 50°02' W 001°36'612.7
2018-Apr-21 15:00N 49°60' W 001°45'713.3
2018-Apr-21 14:30N 49°58' W 001°55'714.0
2018-Apr-21 14:00N 49°57' W 002°06'714.7
2018-Apr-21 13:30N 49°55' W 002°17'714.9
2018-Apr-21 13:00N 49°53' W 002°28'714.9
2018-Apr-21 12:30N 49°51' W 002°39'714.8
2018-Apr-21 12:00N 49°49' W 002°50'714.8
2018-Apr-21 11:30N 49°47' W 003°01'714.8
2018-Apr-21 11:00N 49°43' W 003°11'714.7
2018-Apr-21 10:30N 49°39' W 003°21'10714.2
2018-Apr-21 02:57N 48°42' W 005°39'613.0
2018-Apr-21 02:29N 48°36' W 005°44'912.4
2018-Apr-21 01:45N 48°29' W 005°52'312.2
2018-Apr-21 01:31N 48°27' W 005°56'  
2018-Apr-17 13:41N 37°50' W 027°03'213.1
2018-Apr-17 13:30N 37°49' W 027°05'713.3
2018-Apr-17 12:59N 37°45' W 027°12'2513.1
2018-Apr-17 11:06N 37°30' W 027°37'213.4
2018-Apr-17 10:56N 37°28' W 027°39'712.9
2018-Apr-17 10:25N 37°24' W 027°46'613.6
2018-Apr-17 10:00N 37°21' W 027°51'  

Dump ship's entire track history